sensor_id;sensor_type;location;lat;lon;timestamp;pressure;altitude;pressure_sealevel;temperature;humidity
55759;BME280;41678;52.126;20.664;2023-02-13T00:05:32;102013.41;;;3.19;100.00
55759;BME280;41678;52.126;20.664;2023-02-13T00:10:51;102004.09;;;3.24;100.00
55759;BME280;41678;52.126;20.664;2023-02-13T00:16:11;102014.03;;;3.33;100.00
55759;BME280;41678;52.126;20.664;2023-02-13T00:21:30;102013.81;;;3.29;100.00
55759;BME280;41678;52.126;20.664;2023-02-13T00:26:50;102006.22;;;3.33;100.00
55759;BME280;41678;52.126;20.664;2023-02-13T00:32:09;102005.63;;;3.39;100.00
55759;BME280;41678;52.126;20.664;2023-02-13T00:37:29;102002.06;;;3.37;100.00
55759;BME280;41678;52.126;20.664;2023-02-13T00:42:49;102017.22;;;3.46;100.00
55759;BME280;41678;52.126;20.664;2023-02-13T00:48:08;102002.63;;;3.49;100.00
55759;BME280;41678;52.126;20.664;2023-02-13T00:53:28;102006.22;;;3.53;100.00
55759;BME280;41678;52.126;20.664;2023-02-13T00:58:48;101997.53;;;3.52;100.00
55759;BME280;41678;52.126;20.664;2023-02-13T01:04:07;102003.50;;;3.50;100.00
55759;BME280;41678;52.126;20.664;2023-02-13T01:09:27;101994.13;;;3.53;100.00
55759;BME280;41678;52.126;20.664;2023-02-13T01:14:46;101993.06;;;3.50;100.00
55759;BME280;41678;52.126;20.664;2023-02-13T01:20:08;101987.16;;;3.54;100.00
55759;BME280;41678;52.126;20.664;2023-02-13T01:25:28;101985.19;;;3.48;100.00
55759;BME280;41678;52.126;20.664;2023-02-13T01:30:53;101983.69;;;3.53;100.00
55759;BME280;41678;52.126;20.664;2023-02-13T01:36:14;101977.44;;;3.50;100.00
55759;BME280;41678;52.126;20.664;2023-02-13T01:41:34;101979.97;;;3.48;100.00
55759;BME280;41678;52.126;20.664;2023-02-13T01:46:53;101979.34;;;3.54;100.00
55759;BME280;41678;52.126;20.664;2023-02-13T01:52:14;101981.09;;;3.53;100.00
55759;BME280;41678;52.126;20.664;2023-02-13T01:57:36;101976.38;;;3.45;100.00
55759;BME280;41678;52.126;20.664;2023-02-13T02:03:04;101988.59;;;3.47;100.00
55759;BME280;41678;52.126;20.664;2023-02-13T02:08:27;101979.84;;;3.45;100.00
55759;BME280;41678;52.126;20.664;2023-02-13T02:13:48;101978.47;;;3.53;100.00
55759;BME280;41678;52.126;20.664;2023-02-13T02:19:48;101989.84;;;3.56;100.00
55759;BME280;41678;52.126;20.664;2023-02-13T02:36:22;101984.56;;;3.54;100.00
55759;BME280;41678;52.126;20.664;2023-02-13T02:42:10;101975.88;;;3.53;100.00
55759;BME280;41678;52.126;20.664;2023-02-13T02:47:55;101979.31;;;3.52;100.00
55759;BME280;41678;52.126;20.664;2023-02-13T02:59:12;101994.38;;;3.60;100.00
55759;BME280;41678;52.126;20.664;2023-02-13T03:04:55;101992.69;;;3.60;100.00
55759;BME280;41678;52.126;20.664;2023-02-13T03:10:37;101998.09;;;3.65;100.00
55759;BME280;41678;52.126;20.664;2023-02-13T03:16:19;102003.34;;;3.66;100.00
55759;BME280;41678;52.126;20.664;2023-02-13T03:21:58;102004.25;;;3.67;100.00
55759;BME280;41678;52.126;20.664;2023-02-13T03:27:58;102002.63;;;3.69;100.00
55759;BME280;41678;52.126;20.664;2023-02-13T03:34:01;102002.75;;;3.72;100.00
55759;BME280;41678;52.126;20.664;2023-02-13T03:39:34;102002.41;;;3.64;100.00
55759;BME280;41678;52.126;20.664;2023-02-13T03:45:05;102001.91;;;3.73;100.00
55759;BME280;41678;52.126;20.664;2023-02-13T03:50:46;102005.59;;;3.78;100.00
55759;BME280;41678;52.126;20.664;2023-02-13T03:56:07;102005.75;;;3.81;100.00
55759;BME280;41678;52.126;20.664;2023-02-13T04:01:56;101996.16;;;3.80;100.00
55759;BME280;41678;52.126;20.664;2023-02-13T04:07:19;101994.44;;;3.81;100.00
55759;BME280;41678;52.126;20.664;2023-02-13T04:18:31;101984.09;;;3.82;100.00
55759;BME280;41678;52.126;20.664;2023-02-13T04:23:51;101989.44;;;3.86;100.00
55759;BME280;41678;52.126;20.664;2023-02-13T04:29:10;101995.19;;;3.78;100.00
55759;BME280;41678;52.126;20.664;2023-02-13T04:34:30;101990.13;;;3.81;100.00
55759;BME280;41678;52.126;20.664;2023-02-13T04:39:50;101990.06;;;3.80;100.00
55759;BME280;41678;52.126;20.664;2023-02-13T04:45:10;101983.25;;;3.83;100.00
55759;BME280;41678;52.126;20.664;2023-02-13T04:50:29;101993.69;;;3.83;100.00
55759;BME280;41678;52.126;20.664;2023-02-13T04:55:49;101985.78;;;3.82;100.00
55759;BME280;41678;52.126;20.664;2023-02-13T05:01:15;101990.38;;;3.88;100.00
55759;BME280;41678;52.126;20.664;2023-02-13T05:06:35;101985.16;;;3.88;100.00
55759;BME280;41678;52.126;20.664;2023-02-13T05:11:55;101991.13;;;3.85;100.00
55759;BME280;41678;52.126;20.664;2023-02-13T05:17:15;101984.28;;;3.87;100.00
55759;BME280;41678;52.126;20.664;2023-02-13T05:22:34;101978.06;;;3.83;100.00
55759;BME280;41678;52.126;20.664;2023-02-13T05:28:12;101988.47;;;3.83;100.00
55759;BME280;41678;52.126;20.664;2023-02-13T05:33:51;101993.13;;;3.91;100.00
55759;BME280;41678;52.126;20.664;2023-02-13T05:39:11;101997.94;;;3.81;100.00
55759;BME280;41678;52.126;20.664;2023-02-13T05:44:31;102003.16;;;3.81;100.00
55759;BME280;41678;52.126;20.664;2023-02-13T05:49:51;102012.06;;;3.87;100.00
55759;BME280;41678;52.126;20.664;2023-02-13T05:55:11;102013.75;;;3.86;100.00
55759;BME280;41678;52.126;20.664;2023-02-13T06:00:30;102007.53;;;3.82;100.00
55759;BME280;41678;52.126;20.664;2023-02-13T06:05:50;102016.09;;;3.80;100.00
55759;BME280;41678;52.126;20.664;2023-02-13T06:11:10;102013.63;;;3.83;100.00
55759;BME280;41678;52.126;20.664;2023-02-13T06:16:30;102011.16;;;3.86;100.00
55759;BME280;41678;52.126;20.664;2023-02-13T06:21:50;102017.19;;;3.85;100.00
55759;BME280;41678;52.126;20.664;2023-02-13T06:27:09;102004.16;;;3.85;100.00
55759;BME280;41678;52.126;20.664;2023-02-13T06:32:29;102013.72;;;3.85;100.00
55759;BME280;41678;52.126;20.664;2023-02-13T06:37:48;102021.53;;;3.85;100.00
55759;BME280;41678;52.126;20.664;2023-02-13T06:43:08;102019.75;;;3.83;100.00
55759;BME280;41678;52.126;20.664;2023-02-13T06:48:27;102030.44;;;3.90;100.00
55759;BME280;41678;52.126;20.664;2023-02-13T06:53:47;102032.22;;;3.91;100.00
55759;BME280;41678;52.126;20.664;2023-02-13T06:59:07;102028.38;;;3.82;100.00
55759;BME280;41678;52.126;20.664;2023-02-13T07:04:27;102034.75;;;3.89;100.00
55759;BME280;41678;52.126;20.664;2023-02-13T07:09:47;102034.94;;;3.94;100.00
55759;BME280;41678;52.126;20.664;2023-02-13T07:15:06;102028.78;;;3.92;100.00
55759;BME280;41678;52.126;20.664;2023-02-13T07:20:26;102030.56;;;3.93;100.00
55759;BME280;41678;52.126;20.664;2023-02-13T07:33:04;102042.22;;;4.01;100.00
55759;BME280;41678;52.126;20.664;2023-02-13T07:38:23;102032.50;;;3.97;100.00
55759;BME280;41678;52.126;20.664;2023-02-13T07:43:43;102040.31;;;3.97;100.00
55759;BME280;41678;52.126;20.664;2023-02-13T07:49:03;102037.00;;;4.01;100.00
55759;BME280;41678;52.126;20.664;2023-02-13T07:54:22;102031.78;;;4.01;100.00
55759;BME280;41678;52.126;20.664;2023-02-13T07:59:42;102027.63;;;4.05;100.00
55759;BME280;41678;52.126;20.664;2023-02-13T08:05:02;102023.28;;;4.05;100.00
55759;BME280;41678;52.126;20.664;2023-02-13T08:10:22;102013.81;;;4.07;100.00
55759;BME280;41678;52.126;20.664;2023-02-13T08:16:00;102026.41;;;4.18;100.00
55759;BME280;41678;52.126;20.664;2023-02-13T08:21:20;102014.34;;;4.20;100.00
55759;BME280;41678;52.126;20.664;2023-02-13T08:26:39;102011.19;;;4.27;100.00
55759;BME280;41678;52.126;20.664;2023-02-13T08:31:59;102008.09;;;4.37;100.00
55759;BME280;41678;52.126;20.664;2023-02-13T08:45:31;102009.13;;;4.62;100.00
55759;BME280;41678;52.126;20.664;2023-02-13T08:50:51;102006.81;;;4.70;100.00
55759;BME280;41678;52.126;20.664;2023-02-13T08:56:11;101992.94;;;4.71;100.00
55759;BME280;41678;52.126;20.664;2023-02-13T09:01:31;101994.56;;;4.90;100.00
55759;BME280;41678;52.126;20.664;2023-02-13T09:06:50;101988.00;;;5.00;100.00
55759;BME280;41678;52.126;20.664;2023-02-13T09:12:09;101984.63;;;5.03;100.00
55759;BME280;41678;52.126;20.664;2023-02-13T09:17:29;101991.94;;;5.13;100.00
55759;BME280;41678;52.126;20.664;2023-02-13T09:22:48;101991.84;;;5.10;100.00
55759;BME280;41678;52.126;20.664;2023-02-13T09:28:07;101991.09;;;5.13;100.00
55759;BME280;41678;52.126;20.664;2023-02-13T09:33:37;102002.41;;;5.13;100.00
55759;BME280;41678;52.126;20.664;2023-02-13T09:38:57;101992.75;;;5.10;100.00
55759;BME280;41678;52.126;20.664;2023-02-13T09:44:34;101995.34;;;5.10;100.00
55759;BME280;41678;52.126;20.664;2023-02-13T09:50:19;101990.97;;;5.09;100.00
55759;BME280;41678;52.126;20.664;2023-02-13T09:55:50;101996.22;;;5.11;100.00
55759;BME280;41678;52.126;20.664;2023-02-13T10:01:22;101990.91;;;5.08;100.00
55759;BME280;41678;52.126;20.664;2023-02-13T10:06:45;101998.63;;;5.05;100.00
55759;BME280;41678;52.126;20.664;2023-02-13T10:12:50;102000.44;;;5.07;100.00
55759;BME280;41678;52.126;20.664;2023-02-13T10:18:23;102014.41;;;5.08;100.00
55759;BME280;41678;52.126;20.664;2023-02-13T10:23:57;102009.28;;;5.11;100.00
55759;BME280;41678;52.126;20.664;2023-02-13T10:29:20;102010.94;;;5.09;100.00
55759;BME280;41678;52.126;20.664;2023-02-13T10:35:01;102004.84;;;5.08;100.00
55759;BME280;41678;52.126;20.664;2023-02-13T10:40:37;102003.84;;;5.05;100.00
55759;BME280;41678;52.126;20.664;2023-02-13T10:46:06;101998.66;;;5.06;100.00
55759;BME280;41678;52.126;20.664;2023-02-13T10:51:32;101975.97;;;5.04;100.00
55759;BME280;41678;52.126;20.664;2023-02-13T10:57:13;101981.22;;;5.05;100.00
55759;BME280;41678;52.126;20.664;2023-02-13T11:02:35;101982.97;;;5.05;100.00
55759;BME280;41678;52.126;20.664;2023-02-13T11:07:56;101975.31;;;5.09;100.00
55759;BME280;41678;52.126;20.664;2023-02-13T11:13:18;101952.56;;;5.07;100.00
55759;BME280;41678;52.126;20.664;2023-02-13T11:18:40;101957.13;;;5.13;100.00
55759;BME280;41678;52.126;20.664;2023-02-13T11:24:02;101968.41;;;5.12;100.00
55759;BME280;41678;52.126;20.664;2023-02-13T11:29:26;101970.31;;;5.16;100.00
55759;BME280;41678;52.126;20.664;2023-02-13T11:34:48;101964.31;;;5.18;100.00
55759;BME280;41678;52.126;20.664;2023-02-13T11:40:30;101949.41;;;5.16;100.00
55759;BME280;41678;52.126;20.664;2023-02-13T11:46:05;101936.44;;;5.17;100.00
55759;BME280;41678;52.126;20.664;2023-02-13T11:51:38;101943.53;;;5.21;100.00
55759;BME280;41678;52.126;20.664;2023-02-13T12:02:49;101937.31;;;5.18;100.00
55759;BME280;41678;52.126;20.664;2023-02-13T12:08:08;101922.53;;;5.18;100.00
55759;BME280;41678;52.126;20.664;2023-02-13T12:13:32;101907.84;;;5.22;100.00
55759;BME280;41678;52.126;20.664;2023-02-13T12:18:56;101914.03;;;5.24;100.00
55759;BME280;41678;52.126;20.664;2023-02-13T12:37:15;101908.91;;;5.27;100.00
55759;BME280;41678;52.126;20.664;2023-02-13T12:48:58;101899.59;;;5.34;100.00
55759;BME280;41678;52.126;20.664;2023-02-13T12:54:38;101898.91;;;5.39;100.00
55759;BME280;41678;52.126;20.664;2023-02-13T13:06:12;101866.94;;;5.47;100.00
55759;BME280;41678;52.126;20.664;2023-02-13T13:23:33;101853.94;;;5.48;100.00
55759;BME280;41678;52.126;20.664;2023-02-13T13:28:58;101856.66;;;5.51;100.00
55759;BME280;41678;52.126;20.664;2023-02-13T13:34:23;101840.16;;;5.52;99.81
55759;BME280;41678;52.126;20.664;2023-02-13T13:45:29;101843.69;;;5.55;99.52
55759;BME280;41678;52.126;20.664;2023-02-13T13:50:55;101841.81;;;5.50;99.51
55759;BME280;41678;52.126;20.664;2023-02-13T13:56:15;101852.28;;;5.50;100.00
55759;BME280;41678;52.126;20.664;2023-02-13T14:01:35;101832.13;;;5.48;99.69
55759;BME280;41678;52.126;20.664;2023-02-13T14:29:27;101829.38;;;5.43;98.99
55759;BME280;41678;52.126;20.664;2023-02-13T14:34:59;101814.53;;;5.42;99.25
55759;BME280;41678;52.126;20.664;2023-02-13T14:45:47;101816.28;;;5.42;99.00
55759;BME280;41678;52.126;20.664;2023-02-13T14:51:33;101836.16;;;5.38;99.44
55759;BME280;41678;52.126;20.664;2023-02-13T15:02:27;101818.81;;;5.40;99.26
55759;BME280;41678;52.126;20.664;2023-02-13T15:08:12;101820.41;;;5.35;98.26
55759;BME280;41678;52.126;20.664;2023-02-13T15:13:33;101816.94;;;5.36;98.93
55759;BME280;41678;52.126;20.664;2023-02-13T15:18:54;101817.69;;;5.32;98.60
55759;BME280;41678;52.126;20.664;2023-02-13T15:24:14;101797.66;;;5.32;98.65
55759;BME280;41678;52.126;20.664;2023-02-13T15:29:33;101782.75;;;5.30;98.68
55759;BME280;41678;52.126;20.664;2023-02-13T15:34:53;101776.50;;;5.24;98.72
55759;BME280;41678;52.126;20.664;2023-02-13T15:40:32;101792.28;;;5.28;98.38
55759;BME280;41678;52.126;20.664;2023-02-13T15:45:58;101779.19;;;5.26;98.45
55759;BME280;41678;52.126;20.664;2023-02-13T15:51:20;101786.84;;;5.21;99.17
55759;BME280;41678;52.126;20.664;2023-02-13T15:56:43;101795.56;;;5.22;98.92
55759;BME280;41678;52.126;20.664;2023-02-13T16:02:05;101797.97;;;5.16;98.86
55759;BME280;41678;52.126;20.664;2023-02-13T16:07:29;101794.34;;;5.12;98.70
55759;BME280;41678;52.126;20.664;2023-02-13T16:12:49;101815.22;;;5.12;98.75
55759;BME280;41678;52.126;20.664;2023-02-13T16:18:17;101800.41;;;5.11;98.59
55759;BME280;41678;52.126;20.664;2023-02-13T16:23:37;101799.47;;;5.09;98.64
55759;BME280;41678;52.126;20.664;2023-02-13T16:28:57;101796.84;;;5.09;98.47
55759;BME280;41678;52.126;20.664;2023-02-13T16:34:28;101802.06;;;5.09;98.44
55759;BME280;41678;52.126;20.664;2023-02-13T16:39:48;101799.28;;;5.04;98.09
55759;BME280;41678;52.126;20.664;2023-02-13T16:45:21;101820.00;;;5.00;97.95
55759;BME280;41678;52.126;20.664;2023-02-13T16:50:41;101823.47;;;4.99;98.15
55759;BME280;41678;52.126;20.664;2023-02-13T16:56:07;101836.66;;;5.02;98.06
55759;BME280;41678;52.126;20.664;2023-02-13T17:01:27;101823.25;;;4.92;98.10
55759;BME280;41678;52.126;20.664;2023-02-13T17:06:46;101832.97;;;4.96;97.58
55759;BME280;41678;52.126;20.664;2023-02-13T17:12:15;101822.41;;;4.93;97.69
55759;BME280;41678;52.126;20.664;2023-02-13T17:17:36;101829.38;;;4.93;97.15
55759;BME280;41678;52.126;20.664;2023-02-13T17:22:57;101825.75;;;4.89;97.43
55759;BME280;41678;52.126;20.664;2023-02-13T17:28:25;101827.53;;;4.90;96.66
55759;BME280;41678;52.126;20.664;2023-02-13T17:34:24;101807.41;;;4.88;97.43
55759;BME280;41678;52.126;20.664;2023-02-13T17:39:45;101812.53;;;4.85;96.94
55759;BME280;41678;52.126;20.664;2023-02-13T17:45:05;101813.19;;;4.79;97.35
55759;BME280;41678;52.126;20.664;2023-02-13T17:50:26;101832.50;;;4.84;96.61
55759;BME280;41678;52.126;20.664;2023-02-13T17:55:46;101827.13;;;4.79;96.77
55759;BME280;41678;52.126;20.664;2023-02-13T18:01:09;101825.28;;;4.77;97.17
55759;BME280;41678;52.126;20.664;2023-02-13T18:06:29;101836.47;;;4.73;96.52
55759;BME280;41678;52.126;20.664;2023-02-13T18:11:49;101834.69;;;4.72;97.07
55759;BME280;41678;52.126;20.664;2023-02-13T18:17:09;101859.16;;;4.75;96.74
55759;BME280;41678;52.126;20.664;2023-02-13T18:22:29;101865.09;;;4.71;96.78
55759;BME280;41678;52.126;20.664;2023-02-13T18:27:49;101858.09;;;4.70;97.11
55759;BME280;41678;52.126;20.664;2023-02-13T18:33:09;101864.97;;;4.68;96.65
55759;BME280;41678;52.126;20.664;2023-02-13T18:38:29;101876.06;;;4.62;97.27
55759;BME280;41678;52.126;20.664;2023-02-13T18:43:48;101870.00;;;4.63;96.94
55759;BME280;41678;52.126;20.664;2023-02-13T18:49:09;101878.78;;;4.65;96.80
55759;BME280;41678;52.126;20.664;2023-02-13T18:54:29;101872.50;;;4.60;96.42
55759;BME280;41678;52.126;20.664;2023-02-13T18:59:50;101878.78;;;4.65;96.44
55759;BME280;41678;52.126;20.664;2023-02-13T19:05:09;101875.13;;;4.60;96.69
55759;BME280;41678;52.126;20.664;2023-02-13T19:10:29;101884.44;;;4.53;96.54
55759;BME280;41678;52.126;20.664;2023-02-13T19:15:49;101882.69;;;4.54;96.37
55759;BME280;41678;52.126;20.664;2023-02-13T19:21:09;101877.53;;;4.56;95.78
55759;BME280;41678;52.126;20.664;2023-02-13T19:26:29;101876.53;;;4.52;96.01
55759;BME280;41678;52.126;20.664;2023-02-13T19:31:49;101886.97;;;4.52;96.48
55759;BME280;41678;52.126;20.664;2023-02-13T19:37:09;101898.94;;;4.47;95.94
55759;BME280;41678;52.126;20.664;2023-02-13T19:42:28;101883.19;;;4.44;95.87
55759;BME280;41678;52.126;20.664;2023-02-13T19:47:48;101886.66;;;4.44;95.22
55759;BME280;41678;52.126;20.664;2023-02-13T19:53:07;101907.50;;;4.43;95.91
55759;BME280;41678;52.126;20.664;2023-02-13T19:58:27;101913.47;;;4.40;96.07
55759;BME280;41678;52.126;20.664;2023-02-13T20:03:47;101906.66;;;4.44;95.65
55759;BME280;41678;52.126;20.664;2023-02-13T20:09:09;101914.47;;;4.44;95.75
55759;BME280;41678;52.126;20.664;2023-02-13T20:14:30;101913.47;;;4.40;95.42
55759;BME280;41678;52.126;20.664;2023-02-13T20:19:49;101908.25;;;4.40;95.50
55759;BME280;41678;52.126;20.664;2023-02-13T20:25:09;101925.56;;;4.38;95.96
55759;BME280;41678;52.126;20.664;2023-02-13T20:30:29;101910.72;;;4.37;95.37
55759;BME280;41678;52.126;20.664;2023-02-13T20:35:48;101912.41;;;4.35;95.54
55759;BME280;41678;52.126;20.664;2023-02-13T20:41:13;101913.97;;;4.31;95.85
55759;BME280;41678;52.126;20.664;2023-02-13T20:46:35;101910.66;;;4.35;95.18
55759;BME280;41678;52.126;20.664;2023-02-13T20:51:55;101900.03;;;4.31;95.39
55759;BME280;41678;52.126;20.664;2023-02-13T20:57:15;101918.19;;;4.28;95.31
55759;BME280;41678;52.126;20.664;2023-02-13T21:02:35;101912.09;;;4.27;95.57
55759;BME280;41678;52.126;20.664;2023-02-13T21:07:54;101902.53;;;4.28;95.12
55759;BME280;41678;52.126;20.664;2023-02-13T21:13:14;101902.50;;;4.26;95.27
55759;BME280;41678;52.126;20.664;2023-02-13T21:18:34;101903.31;;;4.25;95.28
55759;BME280;41678;52.126;20.664;2023-02-13T21:23:57;101897.31;;;4.28;95.80
55759;BME280;41678;52.126;20.664;2023-02-13T21:29:18;101897.19;;;4.24;94.89
55759;BME280;41678;52.126;20.664;2023-02-13T21:34:38;101894.50;;;4.23;95.29
55759;BME280;41678;52.126;20.664;2023-02-13T21:39:57;101883.22;;;4.22;95.13
55759;BME280;41678;52.126;20.664;2023-02-13T21:45:16;101877.81;;;4.18;95.33
55759;BME280;41678;52.126;20.664;2023-02-13T21:50:36;101883.09;;;4.19;95.46
55759;BME280;41678;52.126;20.664;2023-02-13T21:55:56;101891.75;;;4.18;95.11
55759;BME280;41678;52.126;20.664;2023-02-13T22:06:37;101884.75;;;4.17;95.35
55759;BME280;41678;52.126;20.664;2023-02-13T22:11:57;101890.84;;;4.18;95.04
55759;BME280;41678;52.126;20.664;2023-02-13T22:17:17;101879.34;;;4.13;95.14
55759;BME280;41678;52.126;20.664;2023-02-13T22:22:36;101882.91;;;4.15;94.97
55759;BME280;41678;52.126;20.664;2023-02-13T22:27:56;101883.72;;;4.14;95.21
55759;BME280;41678;52.126;20.664;2023-02-13T22:33:15;101886.34;;;4.14;95.00
55759;BME280;41678;52.126;20.664;2023-02-13T22:38:35;101895.00;;;4.13;95.34
55759;BME280;41678;52.126;20.664;2023-02-13T22:43:56;101889.69;;;4.11;95.09
55759;BME280;41678;52.126;20.664;2023-02-13T22:49:16;101890.53;;;4.10;95.39
55759;BME280;41678;52.126;20.664;2023-02-13T22:54:36;101900.88;;;4.08;95.43
55759;BME280;41678;52.126;20.664;2023-02-13T22:59:56;101895.81;;;4.11;95.15
55759;BME280;41678;52.126;20.664;2023-02-13T23:05:16;101901.78;;;4.09;95.71
55759;BME280;41678;52.126;20.664;2023-02-13T23:10:36;101883.47;;;4.07;95.37
55759;BME280;41678;52.126;20.664;2023-02-13T23:15:56;101881.66;;;4.05;95.31
55759;BME280;41678;52.126;20.664;2023-02-13T23:21:15;101886.78;;;4.03;96.13
55759;BME280;41678;52.126;20.664;2023-02-13T23:26:35;101888.63;;;4.06;95.33
55759;BME280;41678;52.126;20.664;2023-02-13T23:31:55;101883.34;;;4.04;95.53
55759;BME280;41678;52.126;20.664;2023-02-13T23:37:14;101886.78;;;4.03;95.35
55759;BME280;41678;52.126;20.664;2023-02-13T23:42:34;101885.94;;;4.04;95.64
55759;BME280;41678;52.126;20.664;2023-02-13T23:47:54;101885.94;;;4.04;95.99
55759;BME280;41678;52.126;20.664;2023-02-13T23:53:13;101881.44;;;4.00;95.90
55759;BME280;41678;52.126;20.664;2023-02-13T23:58:33;101872.91;;;4.04;95.83
